createdAt,value
2023-04-18T00:00:51.430Z,6.82
2023-04-18T00:05:54.332Z,6.75
2023-04-18T00:10:57.236Z,6.70
2023-04-18T00:16:00.145Z,6.65
2023-04-18T00:21:03.875Z,6.62
2023-04-18T00:26:06.763Z,6.60
2023-04-18T00:31:09.704Z,6.57
2023-04-18T00:36:12.672Z,6.56
2023-04-18T00:41:16.766Z,6.54
2023-04-18T00:46:19.784Z,6.48
2023-04-18T00:51:22.934Z,6.40
2023-04-18T00:56:26.129Z,6.35
2023-04-18T01:01:29.380Z,6.33
2023-04-18T01:06:32.965Z,6.33
2023-04-18T01:11:36.277Z,6.34
2023-04-18T01:16:39.195Z,6.38
2023-04-18T01:21:44.070Z,6.43
2023-04-18T01:26:50.116Z,6.50
2023-04-18T01:31:54.045Z,6.57
2023-04-18T01:36:57.083Z,6.60
2023-04-18T01:42:02.281Z,6.60
2023-04-18T01:47:05.624Z,6.58
2023-04-18T01:52:08.837Z,6.60
2023-04-18T01:57:11.732Z,6.64
2023-04-18T02:02:14.806Z,6.70
2023-04-18T02:07:17.758Z,6.76
2023-04-18T02:12:21.161Z,6.82
2023-04-18T02:17:24.294Z,6.88
2023-04-18T02:22:27.383Z,6.94
2023-04-18T02:27:30.448Z,6.94
2023-04-18T02:32:33.424Z,6.91
2023-04-18T02:37:36.512Z,6.84
2023-04-18T02:42:40.061Z,6.79
2023-04-18T02:47:54.669Z,6.76
2023-04-18T02:52:58.733Z,6.78
2023-04-18T02:58:01.660Z,6.81
2023-04-18T03:03:05.857Z,6.83
2023-04-18T03:08:08.896Z,6.85
2023-04-18T03:13:11.733Z,6.86
2023-04-18T03:18:14.901Z,6.87
2023-04-18T03:23:17.799Z,6.88
2023-04-18T03:28:20.800Z,6.88
2023-04-18T03:33:24.220Z,6.85
2023-04-18T03:38:27.224Z,6.78
2023-04-18T03:43:30.125Z,6.71
2023-04-18T03:48:36.437Z,6.65
2023-04-18T03:53:39.275Z,6.62
2023-04-18T03:58:42.224Z,6.61
2023-04-18T04:03:45.361Z,6.64
2023-04-18T04:08:48.550Z,6.72
2023-04-18T04:13:51.453Z,6.86
2023-04-18T04:18:54.368Z,7.05
2023-04-18T04:23:57.692Z,7.23
2023-04-18T04:29:00.569Z,7.39
2023-04-18T04:34:05.105Z,7.61
2023-04-18T04:39:08.931Z,7.90
2023-04-18T04:44:12.502Z,8.24
2023-04-18T04:49:15.659Z,8.58
2023-04-18T04:54:18.568Z,8.83
2023-04-18T04:59:21.474Z,8.99
2023-04-18T05:04:25.625Z,9.05
2023-04-18T05:09:28.913Z,9.11
2023-04-18T05:14:31.823Z,9.21
2023-04-18T05:19:35.405Z,9.35
2023-04-18T05:24:38.451Z,9.45
2023-04-18T05:29:41.567Z,9.56
2023-04-18T05:34:44.662Z,9.73
2023-04-18T05:39:47.568Z,9.93
2023-04-18T05:44:50.732Z,10.18
2023-04-18T05:49:53.896Z,10.43
2023-04-18T05:54:56.810Z,10.74
2023-04-18T06:00:00.244Z,11.09
2023-04-18T06:05:03.674Z,11.38
2023-04-18T06:10:11.202Z,11.59
2023-04-18T06:15:14.053Z,12.04
2023-04-18T06:20:17.059Z,12.64
2023-04-18T06:25:20.914Z,13.27
2023-04-18T06:30:23.785Z,13.73
2023-04-18T06:35:26.829Z,14.17
2023-04-18T06:40:30.096Z,15.38
2023-04-18T06:45:33.352Z,17.34
2023-04-18T06:50:36.418Z,19.25
2023-04-18T06:55:40.960Z,20.82
2023-04-18T07:00:43.932Z,22.10
2023-04-18T07:05:47.083Z,23.06
2023-04-18T07:10:50.005Z,24.10
2023-04-18T07:15:52.984Z,24.89
2023-04-18T07:20:55.904Z,25.49
2023-04-18T07:26:01.750Z,25.99
2023-04-18T07:31:05.009Z,26.45
2023-04-18T07:36:08.435Z,26.93
2023-04-18T07:41:11.720Z,27.52
2023-04-18T07:46:14.757Z,28.53
2023-04-18T07:51:17.737Z,29.33
2023-04-18T07:56:20.577Z,30.05
2023-04-18T08:01:25.000Z,30.99
2023-04-18T08:06:29.065Z,31.65
2023-04-18T08:11:34.487Z,32.34
2023-04-18T08:16:37.902Z,32.78
2023-04-18T08:21:40.776Z,33.28
2023-04-18T08:26:43.682Z,34.11
2023-04-18T08:31:46.741Z,33.87
2023-04-18T08:36:51.332Z,32.55
2023-04-18T08:41:59.635Z,30.43
2023-04-18T08:47:03.180Z,30.18
2023-04-18T08:52:14.590Z,31.80
2023-04-18T08:57:23.873Z,33.05
2023-04-18T09:02:45.211Z,33.43
2023-04-18T09:07:50.012Z,34.66
2023-04-18T09:12:53.768Z,35.66
2023-04-18T09:17:59.597Z,36.23
2023-04-18T09:23:04.429Z,36.79
2023-04-18T09:28:30.043Z,36.69
2023-04-18T09:33:33.127Z,36.40
2023-04-18T09:38:41.294Z,36.56
2023-04-18T09:43:47.533Z,35.87
2023-04-18T09:48:50.444Z,35.59
2023-04-18T09:53:53.859Z,36.40
2023-04-18T09:59:07.408Z,37.57
2023-04-18T10:04:12.528Z,38.06
2023-04-18T10:09:16.587Z,38.12
2023-04-18T10:14:20.315Z,39.00
2023-04-18T10:19:24.881Z,39.60
2023-04-18T10:24:56.389Z,39.98
2023-04-18T10:29:59.337Z,40.12
2023-04-18T10:35:02.546Z,40.26
2023-04-18T10:40:07.797Z,40.73
2023-04-18T10:45:20.558Z,40.11
2023-04-18T10:50:23.657Z,36.66
2023-04-18T10:55:30.051Z,32.97
2023-04-18T11:00:33.174Z,30.32
2023-04-18T11:05:36.262Z,28.37
2023-04-18T11:10:39.780Z,28.52
2023-04-18T11:15:42.686Z,31.65
2023-04-18T11:20:50.502Z,34.12
2023-04-18T11:25:56.831Z,35.62
2023-04-18T11:31:03.000Z,36.51
2023-04-18T11:36:07.157Z,35.51
2023-04-18T11:41:14.774Z,33.05
2023-04-18T11:46:17.843Z,34.13
2023-04-18T11:51:38.914Z,32.82
2023-04-18T11:56:48.967Z,29.46
2023-04-18T12:02:15.426Z,26.98
2023-04-18T12:07:32.421Z,25.46
2023-04-18T12:12:36.698Z,25.31
2023-04-18T12:17:39.718Z,25.73
2023-04-18T12:22:45.533Z,26.36
2023-04-18T12:27:49.672Z,25.91
2023-04-18T12:32:57.501Z,25.19
2023-04-18T12:38:01.905Z,24.55
2023-04-18T12:43:04.899Z,23.92
2023-04-18T12:48:08.042Z,23.53
2023-04-18T12:53:10.884Z,23.39
2023-04-18T12:58:18.835Z,23.28
2023-04-18T13:03:22.311Z,23.74
2023-04-18T13:08:25.697Z,25.48
2023-04-18T13:13:28.607Z,27.37
2023-04-18T13:18:31.525Z,26.27
2023-04-18T13:23:34.519Z,24.36
2023-04-18T13:28:37.526Z,22.99
2023-04-18T13:33:40.940Z,21.88
2023-04-18T13:38:43.782Z,21.07
2023-04-18T13:43:46.947Z,20.49
2023-04-18T13:48:50.158Z,19.95
2023-04-18T13:53:52.931Z,19.42
2023-04-18T13:58:56.288Z,18.91
2023-04-18T14:03:59.410Z,18.44
2023-04-18T14:09:02.392Z,17.94
2023-04-18T14:14:06.018Z,17.57
2023-04-18T14:19:09.025Z,17.42
2023-04-18T14:24:12.328Z,17.36
2023-04-18T14:29:15.848Z,17.33
2023-04-18T14:34:18.959Z,17.40
2023-04-18T14:39:22.323Z,17.53
2023-04-18T14:44:25.300Z,17.48
2023-04-18T14:49:28.291Z,17.19
2023-04-18T14:54:32.673Z,16.83
2023-04-18T14:59:35.732Z,16.51
2023-04-18T15:04:38.676Z,16.27
2023-04-18T15:09:41.640Z,15.98
2023-04-18T15:14:44.752Z,15.65
2023-04-18T15:19:47.673Z,15.35
2023-04-18T15:24:50.866Z,15.12
2023-04-18T15:29:53.847Z,14.94
2023-04-18T15:34:56.680Z,14.75
2023-04-18T15:40:00.517Z,14.54
2023-04-18T15:45:04.629Z,14.41
2023-04-18T15:50:09.036Z,14.35
2023-04-18T15:55:15.469Z,14.35
2023-04-18T16:00:19.866Z,14.35
2023-04-18T16:05:22.706Z,14.25
2023-04-18T16:10:25.761Z,14.15
2023-04-18T16:15:31.998Z,14.05
2023-04-18T16:20:34.995Z,13.93
2023-04-18T16:25:38.004Z,13.84
2023-04-18T16:30:43.976Z,13.78
2023-04-18T16:35:46.894Z,13.76
2023-04-18T16:40:49.796Z,13.74
2023-04-18T16:45:56.540Z,13.72
2023-04-18T16:50:59.496Z,13.67
2023-04-18T16:56:03.522Z,13.62
2023-04-18T17:01:08.306Z,13.55
2023-04-18T17:06:11.175Z,13.48
2023-04-18T17:11:14.082Z,13.39
2023-04-18T17:16:18.183Z,13.31
2023-04-18T17:21:21.224Z,13.21
2023-04-18T17:26:25.969Z,13.08
2023-04-18T17:31:29.847Z,12.95
2023-04-18T17:36:32.903Z,12.81
2023-04-18T17:41:38.998Z,12.66
2023-04-18T17:46:42.290Z,12.50
2023-04-18T17:51:45.907Z,12.35
2023-04-18T17:56:50.461Z,12.20
2023-04-18T18:01:53.465Z,12.06
2023-04-18T18:06:57.478Z,11.92
2023-04-18T18:12:00.392Z,11.81
2023-04-18T18:17:03.997Z,11.72
2023-04-18T18:22:07.335Z,11.62
2023-04-18T18:27:10.236Z,11.46
2023-04-18T18:32:13.039Z,11.28
2023-04-18T18:37:15.936Z,11.10
2023-04-18T18:42:18.841Z,10.93
2023-04-18T18:47:21.690Z,10.79
2023-04-18T18:52:25.281Z,10.68
2023-04-18T18:57:28.175Z,10.58
2023-04-18T19:02:31.564Z,10.44
2023-04-18T19:07:34.906Z,10.30
2023-04-18T19:12:38.489Z,10.15
2023-04-18T19:17:41.838Z,10.05
2023-04-18T19:22:44.736Z,9.94
2023-04-18T19:27:47.557Z,9.82
2023-04-18T19:32:50.741Z,9.75
2023-04-18T19:38:01.527Z,9.71
2023-04-18T19:43:04.552Z,9.63
2023-04-18T19:48:07.475Z,9.49
2023-04-18T19:53:11.286Z,9.33
2023-04-18T19:58:34.720Z,9.16
2023-04-18T20:03:38.506Z,8.97
2023-04-18T20:08:42.105Z,8.78
2023-04-18T20:13:45.427Z,8.60
2023-04-18T20:18:49.350Z,8.42
2023-04-18T20:23:52.365Z,8.25
2023-04-18T20:28:55.256Z,8.04
2023-04-18T20:33:58.273Z,7.85
2023-04-18T20:39:02.608Z,7.70
2023-04-18T20:44:06.270Z,7.55
2023-04-18T20:49:09.853Z,7.42
2023-04-18T20:54:13.528Z,7.30
2023-04-18T20:59:16.677Z,7.18
2023-04-18T21:04:20.968Z,7.08
2023-04-18T21:09:24.024Z,7.01
2023-04-18T21:14:26.927Z,6.95
2023-04-18T21:19:29.840Z,6.88
2023-04-18T21:24:32.733Z,6.79
2023-04-18T21:29:36.045Z,6.71
2023-04-18T21:34:38.955Z,6.67
2023-04-18T21:39:42.839Z,6.66
2023-04-18T21:44:45.775Z,6.67
2023-04-18T21:49:49.524Z,6.68
2023-04-18T21:54:53.232Z,6.65
2023-04-18T21:59:57.934Z,6.54
2023-04-18T22:05:00.878Z,6.39
2023-04-18T22:10:05.894Z,6.23
2023-04-18T22:15:08.945Z,6.09
2023-04-18T22:20:12.932Z,6.05
2023-04-18T22:25:15.789Z,6.11
2023-04-18T22:30:18.685Z,6.18
2023-04-18T22:35:22.097Z,6.17
2023-04-18T22:40:25.098Z,6.09
2023-04-18T22:45:28.003Z,5.95
2023-04-18T22:50:30.926Z,5.81
2023-04-18T22:55:34.424Z,5.70
2023-04-18T23:00:38.021Z,5.61
2023-04-18T23:05:41.475Z,5.58
2023-04-18T23:10:44.573Z,5.61
2023-04-18T23:15:47.512Z,5.64
2023-04-18T23:20:50.588Z,5.66
2023-04-18T23:25:53.494Z,5.65
2023-04-18T23:30:56.399Z,5.66
2023-04-18T23:36:00.063Z,5.66
2023-04-18T23:41:03.387Z,5.62
2023-04-18T23:46:06.344Z,5.59
2023-04-18T23:51:09.243Z,5.58
2023-04-18T23:56:12.252Z,5.58
